sensor_id;sensor_type;location;lat;lon;timestamp;P1;durP1;ratioP1;P2;durP2;ratioP2
24631;SDS011;59977;48.782;9.190;2022-08-30T19:39:42;12.30;;;6.53;;
24631;SDS011;59977;48.782;9.190;2022-08-30T19:42:08;10.77;;;5.50;;
24631;SDS011;59977;48.782;9.190;2022-08-30T19:44:34;7.40;;;4.30;;
24631;SDS011;59977;48.782;9.190;2022-08-30T19:47:00;10.52;;;4.70;;
24631;SDS011;59977;48.782;9.190;2022-08-30T19:49:29;9.45;;;4.40;;
24631;SDS011;59977;48.782;9.190;2022-08-30T19:51:55;6.63;;;4.53;;
24631;SDS011;59977;48.782;9.190;2022-08-30T19:54:21;10.35;;;3.78;;
24631;SDS011;59977;48.782;9.190;2022-08-30T19:56:47;9.80;;;4.43;;
24631;SDS011;59977;48.782;9.190;2022-08-30T19:59:13;9.35;;;4.97;;
24631;SDS011;59977;48.782;9.190;2022-08-30T20:01:39;13.88;;;4.57;;
24631;SDS011;59977;48.782;9.190;2022-08-30T20:04:04;7.53;;;4.00;;
24631;SDS011;59977;48.782;9.190;2022-08-30T20:06:30;9.18;;;4.50;;
24631;SDS011;59977;48.782;9.190;2022-08-30T20:08:56;7.30;;;3.72;;
24631;SDS011;59977;48.782;9.190;2022-08-30T20:11:23;8.60;;;4.95;;
24631;SDS011;59977;48.782;9.190;2022-08-30T20:13:48;12.68;;;6.28;;
24631;SDS011;59977;48.782;9.190;2022-08-30T20:16:14;8.52;;;5.90;;
24631;SDS011;59977;48.782;9.190;2022-08-30T20:18:41;7.72;;;4.28;;
24631;SDS011;59977;48.782;9.190;2022-08-30T20:21:07;11.98;;;3.92;;
24631;SDS011;59977;48.782;9.190;2022-08-30T20:23:33;8.18;;;4.22;;
24631;SDS011;59977;48.782;9.190;2022-08-30T20:25:59;11.77;;;3.67;;
24631;SDS011;59977;48.782;9.190;2022-08-30T20:28:27;6.32;;;3.90;;
24631;SDS011;59977;48.782;9.190;2022-08-30T20:30:53;7.07;;;3.97;;
24631;SDS011;59977;48.782;9.190;2022-08-30T20:33:20;11.60;;;3.83;;
24631;SDS011;59977;48.782;9.190;2022-08-30T20:35:46;6.55;;;3.70;;
24631;SDS011;59977;48.782;9.190;2022-08-30T20:38:12;7.03;;;3.22;;
24631;SDS011;59977;48.782;9.190;2022-08-30T20:40:44;9.52;;;3.38;;
24631;SDS011;59977;48.782;9.190;2022-08-30T20:43:11;9.52;;;3.95;;
24631;SDS011;59977;48.782;9.190;2022-08-30T20:45:37;7.82;;;3.22;;
24631;SDS011;59977;48.782;9.190;2022-08-30T20:48:03;5.32;;;3.80;;
24631;SDS011;59977;48.782;9.190;2022-08-30T20:50:29;6.75;;;3.75;;
24631;SDS011;59977;48.782;9.190;2022-08-30T20:52:55;8.20;;;3.45;;
24631;SDS011;59977;48.782;9.190;2022-08-30T20:55:21;9.43;;;3.40;;
24631;SDS011;59977;48.782;9.190;2022-08-30T20:57:46;12.35;;;3.50;;
24631;SDS011;59977;48.782;9.190;2022-08-30T21:00:12;8.40;;;3.28;;
24631;SDS011;59977;48.782;9.190;2022-08-30T21:02:40;10.65;;;3.50;;
24631;SDS011;59977;48.782;9.190;2022-08-30T21:05:07;5.22;;;3.42;;
24631;SDS011;59977;48.782;9.190;2022-08-30T21:07:34;7.18;;;3.38;;
24631;SDS011;59977;48.782;9.190;2022-08-30T21:09:59;5.85;;;3.20;;
24631;SDS011;59977;48.782;9.190;2022-08-30T21:12:25;7.05;;;3.05;;
24631;SDS011;59977;48.782;9.190;2022-08-30T21:14:51;5.65;;;2.83;;
24631;SDS011;59977;48.782;9.190;2022-08-30T21:17:16;9.60;;;3.35;;
24631;SDS011;59977;48.782;9.190;2022-08-30T21:19:42;5.70;;;3.58;;
24631;SDS011;59977;48.782;9.190;2022-08-30T21:22:08;7.00;;;3.30;;
24631;SDS011;59977;48.782;9.190;2022-08-30T21:24:35;8.60;;;3.63;;
24631;SDS011;59977;48.782;9.190;2022-08-30T21:27:01;7.75;;;3.58;;
24631;SDS011;59977;48.782;9.190;2022-08-30T21:29:27;6.60;;;4.00;;
24631;SDS011;59977;48.782;9.190;2022-08-30T21:31:55;6.28;;;3.58;;
24631;SDS011;59977;48.782;9.190;2022-08-30T21:34:21;8.48;;;3.50;;
24631;SDS011;59977;48.782;9.190;2022-08-30T21:36:47;8.43;;;4.43;;
24631;SDS011;59977;48.782;9.190;2022-08-30T21:41:51;9.20;;;3.70;;
24631;SDS011;59977;48.782;9.190;2022-08-30T21:44:22;6.50;;;4.00;;
24631;SDS011;59977;48.782;9.190;2022-08-30T21:46:50;6.20;;;3.42;;
24631;SDS011;59977;48.782;9.190;2022-08-30T21:49:18;8.27;;;3.63;;
24631;SDS011;59977;48.782;9.190;2022-08-30T21:51:46;5.15;;;3.45;;
24631;SDS011;59977;48.782;9.190;2022-08-30T21:54:13;9.45;;;3.58;;
24631;SDS011;59977;48.782;9.190;2022-08-30T21:56:41;7.47;;;3.88;;
24631;SDS011;59977;48.782;9.190;2022-08-30T21:59:08;7.90;;;3.80;;
24631;SDS011;59977;48.782;9.190;2022-08-30T22:01:36;6.65;;;3.35;;
24631;SDS011;59977;48.782;9.190;2022-08-30T22:04:03;8.80;;;3.80;;
24631;SDS011;59977;48.782;9.190;2022-08-30T22:06:30;8.80;;;3.50;;
